Windhoek, Namibia
Current Conditions -  °F | °C
As of 2:00 AM on Wednesday 22 Oct 2014 (Local Time) from FYWW Reporting Station
NA  
Wind Chill: 19°   Ceiling: NA
Heat Index: 19°   Visibility: NA
Dew Point: -12°   Wind: 6mph
Humidity: 11%   Direction: 160°SSE
Pressure: 30.21"   Gusts: NA
Location:  22.56°S, 17.09°E
Report Text: FYWW 220100Z AUTO 16005KT //// // ////// 19/M12 Q1023
Loading
Personal Weather Stations






























Interactive Weather Map
Tropical Storm Tracking
New forecast layout! Learn more

10-Day Weather Forecast

Advertisements
Track Severe Weather on mobile